Time;durP1;ratioP1;P1;durP2;ratioP2;P2;SDS_P1;SDS_P2;PMS_P1;PMS_P2;Temp;Humidity;BMP_temperature;BMP_pressure;BME280_temperature;BME280_humidity;BME280_pressure;Samples;Min_cycle;Max_cycle;Signal;HPM_P1;HPM_P2
2023/03/26 00:00:44;;;;;;;29.73;13.43;;;6.00;99.90;;;;;;4967366;28;20022;-91
2023/03/26 00:03:11;;;;;;;25.65;10.63;;;6.00;99.90;;;;;;4963124;28;20030;-91
2023/03/26 00:05:38;;;;;;;20.05;9.00;;;6.00;99.90;;;;;;4957566;28;20022;-91
2023/03/26 00:08:04;;;;;;;28.92;13.73;;;6.00;99.90;;;;;;4960539;28;20162;-90
2023/03/26 00:10:29;;;;;;;35.35;16.77;;;6.00;99.90;;;;;;4965021;28;20026;-91
2023/03/26 00:12:55;;;;;;;31.88;15.85;;;6.00;99.90;;;;;;4950701;28;20133;-91
2023/03/26 00:15:21;;;;;;;39.92;19.08;;;6.10;99.90;;;;;;4967966;28;20027;-91
2023/03/26 00:17:46;;;;;;;39.97;18.83;;;6.10;99.90;;;;;;4950235;28;20480;-91
2023/03/26 00:20:13;;;;;;;42.58;17.63;;;6.10;99.90;;;;;;4954329;28;20035;-91
2023/03/26 00:22:40;;;;;;;42.78;19.20;;;6.10;99.90;;;;;;4962141;28;20027;-92
2023/03/26 00:25:06;;;;;;;42.38;20.13;;;6.10;99.90;;;;;;4950620;28;20027;-90
2023/03/26 00:27:32;;;;;;;49.97;22.45;;;6.20;99.90;;;;;;4948834;28;20026;-91
2023/03/26 00:29:59;;;;;;;51.50;19.83;;;6.20;99.90;;;;;;4964490;28;20039;-92
2023/03/26 00:32:26;;;;;;;40.05;18.10;;;6.30;99.90;;;;;;4953387;28;20085;-91
2023/03/26 00:34:54;;;;;;;44.95;19.48;;;6.30;99.90;;;;;;4952102;28;20065;-92
2023/03/26 00:37:25;;;;;;;53.95;21.95;;;6.30;99.90;;;;;;4971419;28;20034;-90
2023/03/26 00:39:58;;;;;;;43.03;21.40;;;6.30;99.90;;;;;;4967499;28;20110;-89
2023/03/26 00:42:25;;;;;;;49.53;19.55;;;6.30;99.90;;;;;;4968044;28;20055;-89
2023/03/26 00:44:56;;;;;;;47.25;20.20;;;6.30;99.90;;;;;;4959374;28;20027;-91
2023/03/26 00:47:25;;;;;;;48.17;20.73;;;6.30;99.90;;;;;;4955325;28;20082;-91
2023/03/26 00:49:51;;;;;;;40.70;17.35;;;6.30;99.90;;;;;;4951160;28;20023;-91
2023/03/26 00:52:20;;;;;;;43.55;18.00;;;6.30;99.90;;;;;;4957257;28;20054;-90
2023/03/26 00:54:47;;;;;;;45.90;17.90;;;6.30;99.90;;;;;;4945729;28;20049;-91
2023/03/26 00:57:13;;;;;;;35.42;17.13;;;6.30;99.90;;;;;;4945716;28;20039;-91
2023/03/26 00:59:40;;;;;;;43.60;17.50;;;6.30;99.90;;;;;;4964045;28;20109;-90
2023/03/26 01:02:09;;;;;;;33.60;14.52;;;6.40;99.90;;;;;;4950069;28;20027;-91
2023/03/26 01:04:36;;;;;;;34.88;15.45;;;6.40;99.90;;;;;;4975817;28;20117;-90
2023/03/26 01:07:09;;;;;;;29.35;14.32;;;6.40;99.90;;;;;;4970503;28;20121;-91
2023/03/26 01:09:41;;;;;;;37.33;14.93;;;6.40;99.90;;;;;;4974825;28;20084;-89
2023/03/26 01:12:10;;;;;;;32.38;14.63;;;6.50;99.90;;;;;;4965547;28;20443;-90
2023/03/26 01:14:37;;;;;;;30.15;13.52;;;6.40;99.90;;;;;;4971558;28;20113;-90
2023/03/26 01:17:05;;;;;;;32.97;14.52;;;6.50;99.90;;;;;;4976316;28;20596;-89
2023/03/26 01:19:32;;;;;;;36.25;15.27;;;6.50;99.90;;;;;;4962862;28;20038;-90
2023/03/26 01:21:59;;;;;;;34.00;15.38;;;6.50;99.90;;;;;;4957180;28;20030;-91
2023/03/26 01:24:25;;;;;;;31.48;14.07;;;6.60;99.90;;;;;;4972961;28;20105;-91
2023/03/26 01:27:03;;;;;;;41.67;15.52;;;6.50;99.90;;;;;;4948680;28;20127;-90
2023/03/26 01:29:41;;;;;;;31.23;14.30;;;6.50;99.90;;;;;;4978657;28;20066;-90
2023/03/26 01:32:31;;;;;;;63.47;15.90;;;6.50;99.90;;;;;;4953076;29;20035;-90
2023/03/26 01:35:26;;;;;;;32.40;15.35;;;6.50;99.90;;;;;;4963151;28;20490;-91
2023/03/26 01:37:57;;;;;;;44.92;15.20;;;6.40;99.90;;;;;;4949078;28;20581;-90
2023/03/26 01:40:30;;;;;;;31.40;14.38;;;6.40;99.90;;;;;;4966316;28;20030;-90
2023/03/26 01:43:31;;;;;;;37.10;15.93;;;6.40;99.90;;;;;;4947227;28;20110;-90
2023/03/26 01:46:00;;;;;;;39.88;14.05;;;6.40;99.90;;;;;;4953065;28;20035;-91
2023/03/26 01:48:36;;;;;;;32.60;14.88;;;6.40;99.90;;;;;;4951444;28;20035;-91
2023/03/26 01:51:03;;;;;;;33.97;12.93;;;6.40;99.90;;;;;;4954788;28;20106;-90
2023/03/26 01:53:32;;;;;;;31.00;12.52;;;6.30;99.90;;;;;;4957093;28;20039;-91
2023/03/26 01:56:11;;;;;;;28.20;13.05;;;6.30;99.90;;;;;;4957928;28;20046;-91
2023/03/26 01:59:13;;;;;;;35.42;11.10;;;6.20;99.90;;;;;;4957140;28;20034;-90
2023/03/26 02:02:00;;;;;;;31.25;12.10;;;6.20;99.90;;;;;;4956725;28;20031;-92
2023/03/26 02:04:32;;;;;;;18.10;9.10;;;6.20;99.90;;;;;;4956272;28;20089;-91
2023/03/26 02:07:05;;;;;;;27.75;9.27;;;6.20;99.90;;;;;;4955962;28;20113;-91
2023/03/26 02:09:36;;;;;;;28.05;11.93;;;6.20;99.90;;;;;;4958614;28;20015;-90
2023/03/26 02:12:04;;;;;;;31.55;13.05;;;6.20;99.90;;;;;;4956040;28;20030;-91
2023/03/26 02:14:30;;;;;;;29.27;12.60;;;6.20;99.90;;;;;;4957454;28;20045;-90
2023/03/26 02:16:57;;;;;;;42.03;14.48;;;6.20;99.90;;;;;;4957482;28;20027;-90
2023/03/26 02:19:23;;;;;;;33.75;13.90;;;6.20;99.90;;;;;;4957536;28;20050;-91
2023/03/26 02:21:58;;;;;;;38.17;13.07;;;6.10;99.90;;;;;;4957304;28;20026;-91
2023/03/26 02:24:24;;;;;;;32.15;12.93;;;6.10;99.90;;;;;;4955824;28;20050;-91
2023/03/26 02:26:50;;;;;;;31.10;11.63;;;6.10;99.90;;;;;;4957262;28;20480;-90
2023/03/26 02:29:19;;;;;;;37.53;13.45;;;6.10;99.90;;;;;;4957346;28;20114;-91
2023/03/26 02:31:47;;;;;;;35.80;13.38;;;6.10;99.90;;;;;;4957194;28;20030;-92
2023/03/26 02:34:13;;;;;;;34.17;12.38;;;6.10;99.90;;;;;;4957150;28;20031;-91
2023/03/26 02:36:41;;;;;;;36.17;13.50;;;6.00;99.90;;;;;;4957314;28;20027;-91
2023/03/26 02:39:10;;;;;;;36.42;12.55;;;6.00;99.90;;;;;;4957572;28;20034;-90
2023/03/26 02:41:39;;;;;;;38.35;13.15;;;6.00;99.90;;;;;;4957578;28;20081;-89
2023/03/26 02:44:05;;;;;;;40.17;11.57;;;6.10;99.90;;;;;;4957656;28;20476;-90
2023/03/26 02:46:32;;;;;;;33.72;11.55;;;6.10;99.90;;;;;;4957454;28;20037;-91
2023/03/26 02:48:58;;;;;;;23.05;11.40;;;6.00;99.90;;;;;;4957342;28;20038;-91
2023/03/26 02:51:24;;;;;;;34.80;11.35;;;6.10;99.90;;;;;;4956904;28;20114;-91
2023/03/26 02:53:52;;;;;;;30.33;11.75;;;6.00;99.90;;;;;;4957254;28;20062;-91
2023/03/26 02:56:18;;;;;;;29.35;11.73;;;6.00;99.90;;;;;;4956842;28;20078;-91
2023/03/26 02:58:45;;;;;;;26.23;8.75;;;6.00;99.90;;;;;;4956710;28;20038;-90
2023/03/26 03:01:11;;;;;;;20.92;7.85;;;6.00;99.90;;;;;;4956304;28;20050;-91
2023/03/26 03:03:37;;;;;;;23.65;7.55;;;6.00;99.90;;;;;;4957039;28;20115;-90
2023/03/26 03:06:03;;;;;;;23.00;8.48;;;6.00;99.90;;;;;;4956985;28;20051;-90
2023/03/26 03:08:29;;;;;;;31.08;9.55;;;6.00;99.90;;;;;;4956752;28;20038;-91
2023/03/26 03:11:09;;;;;;;28.73;10.68;;;6.00;99.90;;;;;;4957485;28;20050;-91
2023/03/26 03:13:35;;;;;;;33.20;11.43;;;6.00;99.90;;;;;;4956518;28;20030;-90
2023/03/26 03:16:00;;;;;;;28.42;12.02;;;6.00;99.90;;;;;;4955949;28;20166;-88
2023/03/26 03:18:26;;;;;;;33.90;12.30;;;6.00;99.90;;;;;;4955679;28;20039;-91
2023/03/26 03:20:52;;;;;;;24.63;12.55;;;5.90;99.90;;;;;;4956422;28;20073;-91
2023/03/26 03:23:18;;;;;;;36.80;13.60;;;5.90;99.90;;;;;;4956217;28;20037;-90
2023/03/26 03:25:44;;;;;;;29.63;12.27;;;5.90;99.90;;;;;;4957824;28;20090;-90
2023/03/26 03:28:12;;;;;;;30.05;13.32;;;5.90;99.90;;;;;;4960143;28;20436;-90
2023/03/26 03:30:38;;;;;;;31.30;11.93;;;5.90;99.90;;;;;;4959895;28;20085;-90
2023/03/26 03:33:04;;;;;;;31.48;16.50;;;5.90;99.90;;;;;;4977149;28;20034;-90
2023/03/26 03:35:32;;;;;;;42.53;16.30;;;5.90;99.90;;;;;;4959470;28;20500;-91
2023/03/26 03:37:58;;;;;;;35.05;15.15;;;5.90;99.90;;;;;;4960008;28;20401;-90
2023/03/26 03:40:24;;;;;;;49.70;17.80;;;5.90;99.90;;;;;;4959604;28;20058;-90
2023/03/26 03:42:50;;;;;;;28.42;13.45;;;5.90;99.90;;;;;;4976981;28;20057;-91
2023/03/26 03:45:16;;;;;;;31.45;14.15;;;5.90;99.90;;;;;;4976875;28;20058;-91
2023/03/26 03:47:42;;;;;;;37.78;15.25;;;5.90;99.90;;;;;;4959688;28;20029;-92
2023/03/26 03:50:08;;;;;;;42.40;16.83;;;5.90;99.90;;;;;;4959792;28;20113;-90
2023/03/26 03:52:34;;;;;;;28.23;13.23;;;5.90;99.90;;;;;;4959851;28;20058;-91
2023/03/26 03:55:00;;;;;;;34.90;14.00;;;5.90;99.90;;;;;;4959729;28;20089;-90
2023/03/26 03:57:27;;;;;;;36.47;14.18;;;5.90;99.90;;;;;;4959963;28;20027;-91
2023/03/26 03:59:53;;;;;;;32.13;12.25;;;5.90;99.90;;;;;;4959476;28;20138;-91
2023/03/26 04:02:24;;;;;;;34.88;13.80;;;5.90;99.90;;;;;;4959642;28;20047;-92
2023/03/26 04:04:51;;;;;;;30.65;13.63;;;5.90;99.90;;;;;;4959621;28;20031;-92
2023/03/26 04:07:17;;;;;;;33.97;12.82;;;5.90;99.90;;;;;;4960367;28;20026;-91
2023/03/26 04:09:43;;;;;;;34.15;15.32;;;5.80;99.90;;;;;;4959410;28;20046;-88
2023/03/26 04:12:09;;;;;;;31.33;14.38;;;5.90;99.90;;;;;;4960132;28;20050;-90
2023/03/26 04:14:34;;;;;;;32.10;14.10;;;5.90;99.90;;;;;;4960164;28;20030;-91
2023/03/26 04:17:01;;;;;;;29.25;14.82;;;5.90;99.90;;;;;;4959903;28;20492;-90
2023/03/26 04:19:26;;;;;;;31.23;14.10;;;5.80;99.90;;;;;;4958929;28;20039;-91
2023/03/26 04:21:53;;;;;;;26.83;12.57;;;5.80;99.90;;;;;;4959100;28;20102;-90
2023/03/26 04:24:21;;;;;;;34.25;11.82;;;5.80;99.90;;;;;;4959134;28;20031;-89
2023/03/26 04:26:48;;;;;;;32.67;13.48;;;5.70;99.90;;;;;;4959032;28;20034;-89
2023/03/26 04:29:17;;;;;;;29.17;11.38;;;5.80;99.90;;;;;;4959637;28;20027;-89
2023/03/26 04:31:42;;;;;;;31.23;11.85;;;5.80;99.90;;;;;;4960005;28;20034;-90
2023/03/26 04:34:22;;;;;;;26.63;11.35;;;5.60;99.90;;;;;;4959427;28;20397;-88
2023/03/26 04:36:50;;;;;;;30.13;10.73;;;5.60;99.90;;;;;;4958559;28;20030;-89
2023/03/26 04:39:16;;;;;;;33.15;11.23;;;5.60;99.90;;;;;;4960331;28;20030;-91
2023/03/26 04:41:42;;;;;;;30.58;9.77;;;5.60;99.90;;;;;;4961197;28;20023;-89
2023/03/26 04:44:07;;;;;;;31.70;9.60;;;5.60;99.90;;;;;;4959902;28;20033;-89
2023/03/26 04:46:33;;;;;;;21.67;8.63;;;5.50;99.90;;;;;;4959653;28;20019;-89
2023/03/26 04:49:00;;;;;;;28.33;7.72;;;5.50;99.90;;;;;;4959830;28;20034;-87
2023/03/26 04:51:36;;;;;;;29.80;7.47;;;5.50;99.90;;;;;;4959487;28;20039;-89
2023/03/26 04:54:03;;;;;;;38.13;8.35;;;5.50;99.90;;;;;;4976692;28;20026;-89
2023/03/26 04:56:55;;;;;;;23.98;8.20;;;5.40;99.90;;;;;;4959066;28;20023;-90
2023/03/26 04:59:35;;;;;;;22.27;6.88;;;5.40;99.90;;;;;;4958183;28;20404;-89
2023/03/26 05:02:03;;;;;;;34.63;10.57;;;5.50;99.90;;;;;;4959078;28;20481;-88
2023/03/26 05:04:30;;;;;;;21.02;7.70;;;5.40;99.90;;;;;;4961684;28;20045;-87
2023/03/26 05:06:59;;;;;;;40.55;10.07;;;5.40;99.90;;;;;;4960004;28;20063;-87
2023/03/26 05:09:26;;;;;;;27.23;7.25;;;5.40;99.90;;;;;;4958470;28;20038;-89
2023/03/26 05:11:52;;;;;;;24.98;7.35;;;5.40;99.90;;;;;;4960531;28;20041;-89
2023/03/26 05:14:18;;;;;;;21.83;6.30;;;5.40;99.90;;;;;;4960361;28;20027;-88
2023/03/26 05:16:45;;;;;;;24.13;5.70;;;5.30;99.90;;;;;;4954063;29;20050;-89
2023/03/26 05:19:11;;;;;;;23.13;4.72;;;5.30;99.90;;;;;;4940563;29;20074;-88
2023/03/26 05:21:37;;;;;;;18.60;4.75;;;5.40;99.90;;;;;;4947458;29;20031;-89
2023/03/26 05:24:04;;;;;;;29.05;4.57;;;5.30;99.90;;;;;;4946086;29;20027;-87
2023/03/26 05:26:30;;;;;;;19.63;4.90;;;5.30;99.90;;;;;;4946164;29;20031;-88
2023/03/26 05:28:55;;;;;;;22.33;4.20;;;5.20;99.90;;;;;;4946725;29;20027;-88
2023/03/26 05:31:21;;;;;;;27.08;3.70;;;5.20;99.90;;;;;;4946360;29;20035;-89
2023/03/26 05:33:47;;;;;;;13.20;4.13;;;5.20;99.90;;;;;;4947001;29;20027;-88
2023/03/26 05:36:14;;;;;;;23.92;5.50;;;5.20;99.90;;;;;;4946532;29;20042;-90
2023/03/26 05:38:41;;;;;;;21.08;4.10;;;5.20;99.90;;;;;;4959289;29;20039;-88
2023/03/26 05:41:09;;;;;;;35.88;4.55;;;5.20;99.90;;;;;;4943998;29;20023;-90
2023/03/26 05:43:35;;;;;;;25.95;3.63;;;5.20;99.90;;;;;;4940434;29;20050;-89
2023/03/26 05:46:01;;;;;;;24.13;3.90;;;5.10;99.90;;;;;;4942073;29;20047;-88
2023/03/26 05:48:27;;;;;;;17.90;3.70;;;5.20;99.90;;;;;;4942809;29;20035;-92
2023/03/26 05:50:55;;;;;;;28.17;3.90;;;5.20;99.90;;;;;;4941287;29;20547;-89
2023/03/26 05:53:22;;;;;;;20.48;3.33;;;5.20;99.90;;;;;;4956082;29;20130;-89
2023/03/26 05:55:56;;;;;;;24.00;4.22;;;5.10;99.90;;;;;;4939456;29;20030;-90
2023/03/26 05:58:30;;;;;;;21.48;4.00;;;5.10;99.90;;;;;;4939236;29;20062;-90
2023/03/26 06:01:04;;;;;;;18.05;3.90;;;5.10;99.90;;;;;;4938919;29;20050;-90
2023/03/26 06:03:30;;;;;;;22.33;4.38;;;5.10;99.90;;;;;;4940064;29;20055;-89
2023/03/26 06:05:56;;;;;;;18.67;3.30;;;5.10;99.90;;;;;;4939346;29;20055;-89
2023/03/26 06:08:22;;;;;;;18.30;3.78;;;5.10;99.90;;;;;;4939456;29;20058;-89
2023/03/26 06:10:49;;;;;;;22.20;4.00;;;5.10;99.90;;;;;;4938863;29;20116;-89
2023/03/26 06:13:16;;;;;;;29.90;5.15;;;5.20;99.90;;;;;;4938897;29;20023;-88
2023/03/26 06:15:42;;;;;;;17.17;3.28;;;5.10;99.90;;;;;;4938646;29;20445;-89
2023/03/26 06:18:08;;;;;;;20.25;3.00;;;5.10;99.90;;;;;;4938238;29;20035;-89
2023/03/26 06:20:34;;;;;;;19.40;3.03;;;5.10;99.90;;;;;;4938981;29;20082;-89
2023/03/26 06:23:00;;;;;;;23.30;4.45;;;5.10;99.90;;;;;;4938157;29;20027;-90
2023/03/26 06:25:25;;;;;;;23.98;3.50;;;5.10;99.90;;;;;;4938152;29;20031;-89
2023/03/26 06:27:51;;;;;;;16.88;3.00;;;5.00;99.90;;;;;;4945229;28;20420;-90
2023/03/26 06:30:17;;;;;;;18.65;2.92;;;5.00;99.90;;;;;;4957180;28;20031;-88
2023/03/26 06:32:42;;;;;;;14.05;2.75;;;5.00;99.90;;;;;;4957356;28;20034;-90
2023/03/26 06:35:10;;;;;;;21.05;3.17;;;5.00;99.90;;;;;;4957303;28;20038;-89
2023/03/26 06:37:36;;;;;;;21.85;4.00;;;5.00;99.90;;;;;;4956861;28;20031;-89
2023/03/26 06:40:02;;;;;;;24.40;2.75;;;5.00;99.90;;;;;;4957152;28;20494;-88
2023/03/26 06:42:27;;;;;;;26.13;4.28;;;5.00;99.90;;;;;;4957310;28;20027;-89
2023/03/26 06:44:53;;;;;;;23.63;4.53;;;5.00;99.90;;;;;;4956945;28;20054;-88
2023/03/26 06:47:19;;;;;;;21.73;3.17;;;5.00;99.90;;;;;;4956487;28;20667;-89
2023/03/26 06:49:44;;;;;;;26.27;3.38;;;5.00;99.90;;;;;;4956838;28;20042;-89
2023/03/26 06:52:11;;;;;;;18.40;2.13;;;5.00;99.90;;;;;;4957115;28;20138;-89
2023/03/26 06:54:37;;;;;;;15.73;2.75;;;5.00;99.90;;;;;;4956975;28;20409;-90
2023/03/26 06:57:03;;;;;;;26.75;2.85;;;5.00;99.90;;;;;;4957049;28;20030;-89
2023/03/26 06:59:28;;;;;;;16.42;2.65;;;5.00;99.90;;;;;;4957016;28;20043;-88
2023/03/26 07:01:54;;;;;;;20.60;2.40;;;5.00;99.90;;;;;;4960629;28;20026;-88
2023/03/26 07:04:19;;;;;;;10.05;2.38;;;5.00;99.90;;;;;;4961107;28;20469;-88
2023/03/26 07:06:45;;;;;;;23.38;3.35;;;5.00;99.90;;;;;;4961436;28;20030;-88
2023/03/26 07:09:11;;;;;;;17.63;2.20;;;5.00;99.90;;;;;;4961107;28;20035;-88
2023/03/26 07:11:36;;;;;;;12.27;2.05;;;5.10;99.90;;;;;;4961457;28;20468;-88
2023/03/26 07:14:02;;;;;;;23.73;2.60;;;5.10;99.90;;;;;;4960919;28;20432;-90
2023/03/26 07:16:28;;;;;;;26.13;2.97;;;5.20;99.90;;;;;;4960678;28;20026;-89
2023/03/26 07:18:54;;;;;;;24.73;3.08;;;5.20;99.90;;;;;;4959212;28;20037;-90
2023/03/26 07:21:20;;;;;;;32.22;5.20;;;5.30;99.90;;;;;;4959375;28;20023;-89
2023/03/26 07:23:46;;;;;;;22.00;3.20;;;5.30;99.90;;;;;;4959424;28;20110;-88
2023/03/26 07:26:36;;;;;;;18.13;3.00;;;5.30;99.90;;;;;;4958870;28;20037;-89
2023/03/26 07:29:36;;;;;;;21.25;3.72;;;5.30;99.90;;;;;;4958062;28;20477;-89
2023/03/26 07:32:15;;;;;;;21.55;5.85;;;5.40;99.90;;;;;;4931610;28;20039;-90
2023/03/26 07:35:03;;;;;;;19.40;3.38;;;5.50;99.90;;;;;;4952101;28;20019;-89
2023/03/26 07:37:40;;;;;;;11.13;3.63;;;5.50;99.90;;;;;;4966435;28;20027;-89
2023/03/26 07:40:36;;;;;;;25.70;4.55;;;5.60;99.90;;;;;;4959313;28;20049;-88
2023/03/26 07:43:22;;;;;;;20.13;4.70;;;5.60;99.90;;;;;;4920997;28;20039;-88
2023/03/26 07:45:48;;;;;;;16.25;4.30;;;5.60;99.90;;;;;;4955895;28;20030;-88
2023/03/26 07:48:16;;;;;;;24.55;4.15;;;5.60;99.90;;;;;;4959899;28;20404;-89
2023/03/26 07:50:42;;;;;;;16.75;3.25;;;5.70;99.90;;;;;;4959842;28;20026;-89
2023/03/26 07:53:08;;;;;;;20.63;3.50;;;5.70;99.90;;;;;;4959670;28;20054;-89
2023/03/26 07:55:50;;;;;;;18.52;3.22;;;5.70;99.90;;;;;;4978340;28;20027;-88
2023/03/26 07:58:56;;;;;;;25.40;3.83;;;5.70;99.90;;;;;;4964515;28;20043;-89
2023/03/26 08:01:59;;;;;;;11.10;2.75;;;5.70;99.90;;;;;;4936063;28;20142;-89
2023/03/26 08:05:18;;;;;;;20.38;2.97;;;5.70;99.90;;;;;;4959654;28;20114;-87
2023/03/26 08:08:08;;;;;;;16.95;2.72;;;5.80;99.90;;;;;;4906517;29;20029;-89
2023/03/26 08:11:09;;;;;;;18.98;3.50;;;5.80;99.90;;;;;;4904102;29;20028;-89
2023/03/26 08:13:56;;;;;;;26.58;3.22;;;5.80;99.90;;;;;;4905937;29;20032;-90
2023/03/26 08:16:27;;;;;;;17.65;2.35;;;5.80;99.90;;;;;;4885093;29;20036;-90
2023/03/26 08:19:23;;;;;;;14.77;2.72;;;5.80;99.90;;;;;;4892812;29;20049;-91
2023/03/26 08:22:05;;;;;;;22.85;3.55;;;5.80;99.90;;;;;;4854915;29;20032;-90
2023/03/26 08:24:38;;;;;;;16.55;3.20;;;5.90;99.90;;;;;;4886066;29;20040;-91
2023/03/26 08:27:20;;;;;;;18.25;2.45;;;5.90;99.90;;;;;;4906233;29;20063;-90
2023/03/26 08:30:15;;;;;;;24.30;4.30;;;6.00;99.90;;;;;;4886263;29;20100;-91
2023/03/26 08:32:41;;;;;;;18.02;2.60;;;6.00;99.90;;;;;;4899956;29;20028;-91
2023/03/26 08:35:12;;;;;;;18.65;3.20;;;6.00;99.90;;;;;;4894818;29;20081;-89
2023/03/26 08:37:38;;;;;;;13.48;2.83;;;6.10;99.90;;;;;;4892820;29;20513;-90
2023/03/26 08:40:05;;;;;;;15.07;2.83;;;6.10;99.90;;;;;;4890850;29;20101;-88
2023/03/26 08:43:04;;;;;;;15.18;2.47;;;6.20;99.90;;;;;;4925937;29;20114;-89
2023/03/26 08:45:47;;;;;;;6.53;1.75;;;6.20;99.90;;;;;;4939839;29;20110;-90
2023/03/26 08:48:28;;;;;;;13.20;3.38;;;6.20;99.90;;;;;;4939690;29;20023;-88
2023/03/26 08:51:16;;;;;;;21.33;3.72;;;6.20;99.90;;;;;;4939814;29;20042;-88
2023/03/26 08:54:06;;;;;;;28.00;6.68;;;6.30;99.90;;;;;;4940192;29;20114;-89
2023/03/26 08:56:38;;;;;;;17.17;3.13;;;6.30;99.90;;;;;;4940302;28;20104;-90
2023/03/26 08:59:07;;;;;;;19.50;3.10;;;6.30;99.90;;;;;;4959392;28;20129;-90
2023/03/26 09:02:01;;;;;;;15.32;2.60;;;6.40;99.90;;;;;;4958355;28;20030;-89
2023/03/26 09:04:39;;;;;;;15.60;2.63;;;6.40;99.90;;;;;;4957192;28;20089;-89
2023/03/26 09:07:26;;;;;;;11.55;3.30;;;6.50;99.90;;;;;;4958219;28;20034;-90
2023/03/26 09:10:21;;;;;;;21.83;4.65;;;6.50;99.90;;;;;;4958159;28;20039;-89
2023/03/26 09:13:14;;;;;;;10.27;2.42;;;6.60;99.90;;;;;;4959174;28;20133;-90
2023/03/26 09:15:58;;;;;;;20.80;2.65;;;6.70;99.90;;;;;;4958950;28;20022;-90
2023/03/26 09:18:33;;;;;;;18.48;2.00;;;6.80;99.90;;;;;;4958884;28;20099;-89
2023/03/26 09:21:35;;;;;;;18.60;2.47;;;6.90;99.90;;;;;;4959443;28;20078;-91
2023/03/26 09:24:28;;;;;;;17.42;2.78;;;7.00;99.90;;;;;;4958500;28;20023;-90
2023/03/26 09:27:25;;;;;;;11.68;2.33;;;7.10;99.90;;;;;;4957538;28;20030;-89
2023/03/26 09:30:31;;;;;;;20.55;2.40;;;7.30;99.90;;;;;;4958358;28;20632;-90
2023/03/26 09:33:34;;;;;;;19.55;3.42;;;7.40;99.90;;;;;;4957847;28;20030;-92
2023/03/26 09:36:25;;;;;;;16.70;2.20;;;7.50;99.90;;;;;;4958980;28;20027;-92
2023/03/26 09:39:14;;;;;;;14.77;2.10;;;7.60;99.90;;;;;;4958567;28;20518;-89
2023/03/26 09:42:31;;;;;;;11.55;2.63;;;7.70;99.90;;;;;;4927626;28;20033;-91
2023/03/26 09:44:56;;;;;;;13.00;2.05;;;7.80;99.90;;;;;;4933700;28;20057;-92
2023/03/26 09:47:28;;;;;;;12.65;2.53;;;7.80;99.90;;;;;;4958720;28;20023;-89
2023/03/26 09:50:23;;;;;;;18.73;2.90;;;7.80;99.90;;;;;;4957879;28;20035;-92
2023/03/26 09:53:10;;;;;;;13.48;2.50;;;7.90;99.90;;;;;;4954944;28;20556;-93
2023/03/26 09:56:10;;;;;;;9.77;1.60;;;8.10;99.90;;;;;;4972680;28;20042;-92
2023/03/26 09:58:36;;;;;;;10.98;1.98;;;8.40;99.90;;;;;;4957130;28;20039;-92
2023/03/26 10:01:05;;;;;;;17.23;2.63;;;8.70;99.90;;;;;;4962683;28;20031;-91
2023/03/26 10:03:58;;;;;;;18.50;2.20;;;8.80;99.90;;;;;;4957041;28;20045;-91
2023/03/26 10:06:40;;;;;;;11.95;2.15;;;9.00;99.90;;;;;;4957991;28;20035;-91
2023/03/26 10:09:16;;;;;;;11.43;2.85;;;9.10;99.90;;;;;;4955318;28;20102;-90
2023/03/26 10:11:57;;;;;;;9.27;2.08;;;9.30;99.90;;;;;;4956197;28;20041;-91
2023/03/26 10:14:37;;;;;;;13.10;1.60;;;9.50;99.90;;;;;;4953114;28;20073;-91
2023/03/26 10:17:37;;;;;;;13.98;2.13;;;9.80;99.90;;;;;;4956073;28;20026;-91
2023/03/26 10:20:04;;;;;;;12.02;2.17;;;10.00;99.90;;;;;;4957266;28;21061;-91
2023/03/26 10:23:08;;;;;;;15.98;2.20;;;9.90;99.90;;;;;;4955335;28;20023;-92
2023/03/26 10:25:48;;;;;;;8.35;2.75;;;9.80;99.90;;;;;;4953018;28;20038;-92
2023/03/26 10:28:20;;;;;;;9.52;2.42;;;9.60;99.90;;;;;;4962373;28;20057;-91
2023/03/26 10:31:15;;;;;;;15.43;2.47;;;9.50;99.90;;;;;;4957422;28;20026;-91
2023/03/26 10:33:48;;;;;;;9.73;1.80;;;9.30;99.90;;;;;;4958159;28;20014;-91
2023/03/26 10:36:26;;;;;;;12.45;2.15;;;9.20;99.90;;;;;;4957425;28;20034;-92
2023/03/26 10:39:01;;;;;;;10.27;1.88;;;9.10;99.90;;;;;;4957125;28;20034;-91
2023/03/26 10:41:47;;;;;;;10.48;1.80;;;9.00;99.60;;;;;;4938326;29;20548;-90
2023/03/26 10:44:46;;;;;;;9.77;1.65;;;9.00;99.40;;;;;;4955361;28;20058;-91
2023/03/26 10:47:30;;;;;;;10.75;2.38;;;9.00;99.50;;;;;;4955724;28;20034;-94
2023/03/26 10:50:14;;;;;;;11.35;2.00;;;9.10;99.40;;;;;;4956479;28;20022;-92
2023/03/26 10:52:52;;;;;;;12.68;2.55;;;9.20;99.10;;;;;;4955967;28;20038;-92
2023/03/26 10:55:36;;;;;;;12.35;1.95;;;9.30;98.60;;;;;;4972210;28;20098;-92
2023/03/26 10:58:22;;;;;;;12.45;1.92;;;9.40;98.40;;;;;;4949121;28;20035;-93
2023/03/26 11:01:17;;;;;;;9.65;1.70;;;9.40;98.20;;;;;;4955280;28;20159;-93
2023/03/26 11:03:53;;;;;;;8.90;1.80;;;9.40;98.20;;;;;;4913873;29;20039;-92
2023/03/26 11:06:24;;;;;;;12.30;2.25;;;9.50;98.20;;;;;;4948283;28;20029;-93
2023/03/26 11:09:34;;;;;;;15.48;1.92;;;9.70;97.60;;;;;;4955020;28;20030;-93
2023/03/26 11:12:38;;;;;;;8.77;1.87;;;9.70;96.50;;;;;;4923911;29;20071;-95
2023/03/26 11:15:04;;;;;;;7.20;1.65;;;9.70;95.90;;;;;;4892206;29;20054;-92
2023/03/26 11:17:38;;;;;;;14.93;1.83;;;9.80;95.60;;;;;;4917302;29;20032;-92
2023/03/26 11:20:31;;;;;;;10.10;2.15;;;9.90;95.40;;;;;;4919791;29;20036;-92
2023/03/26 11:23:18;;;;;;;9.77;1.63;;;10.10;95.30;;;;;;4916180;29;20056;-93
2023/03/26 11:26:04;;;;;;;8.02;1.45;;;10.50;94.60;;;;;;4913006;29;20047;-93
2023/03/26 11:28:51;;;;;;;10.25;1.98;;;10.70;93.60;;;;;;4899310;29;20040;-91
2023/03/26 11:31:36;;;;;;;7.75;1.65;;;11.00;92.70;;;;;;4904591;29;20519;-94
2023/03/26 11:34:08;;;;;;;9.05;1.55;;;11.20;91.70;;;;;;4915346;29;20028;-93
2023/03/26 11:36:41;;;;;;;9.43;1.90;;;11.10;90.90;;;;;;4914887;29;20116;-94
2023/03/26 11:39:19;;;;;;;9.07;1.52;;;11.10;90.90;;;;;;4908385;29;20040;-93
2023/03/26 11:41:46;;;;;;;11.77;2.13;;;11.20;90.90;;;;;;4922454;28;20036;-94
2023/03/26 11:44:32;;;;;;;5.25;1.27;;;11.20;90.70;;;;;;4956520;28;20117;-95
2023/03/26 11:47:08;;;;;;;10.48;2.42;;;11.00;90.30;;;;;;4970039;28;20026;-93
2023/03/26 11:49:35;;;;;;;11.75;1.88;;;10.90;90.00;;;;;;4967961;28;20019;-93
2023/03/26 11:52:02;;;;;;;12.32;1.63;;;10.70;89.70;;;;;;4946391;29;20047;-91
2023/03/26 11:54:28;;;;;;;14.88;1.92;;;10.60;90.00;;;;;;4962991;28;20022;-95
2023/03/26 11:57:05;;;;;;;11.18;2.20;;;10.50;90.20;;;;;;4981965;28;20027;-91
2023/03/26 11:59:36;;;;;;;17.73;2.15;;;10.40;90.30;;;;;;4964321;28;20046;-93
2023/03/26 12:02:08;;;;;;;10.50;1.80;;;10.20;90.50;;;;;;4963214;28;20085;-94
2023/03/26 12:04:42;;;;;;;7.53;1.60;;;10.10;90.60;;;;;;4974882;28;20029;-93
2023/03/26 12:07:24;;;;;;;8.52;2.10;;;9.90;90.90;;;;;;4960659;28;20037;-89
2023/03/26 12:10:15;;;;;;;12.82;2.10;;;9.80;91.20;;;;;;4962506;28;20030;-91
2023/03/26 12:12:45;;;;;;;9.68;1.67;;;9.70;91.50;;;;;;4969798;28;20089;-93
2023/03/26 12:15:17;;;;;;;11.82;2.20;;;9.70;91.70;;;;;;4958996;28;20031;-90
2023/03/26 12:17:45;;;;;;;13.18;2.20;;;9.70;91.90;;;;;;4974899;28;20058;-90
2023/03/26 12:20:23;;;;;;;10.20;1.80;;;9.60;91.70;;;;;;4945670;28;20121;-90
2023/03/26 12:23:01;;;;;;;10.80;1.50;;;9.40;91.80;;;;;;4969526;28;20432;-90
2023/03/26 12:25:29;;;;;;;12.75;1.83;;;9.30;91.80;;;;;;4954767;29;20043;-91
2023/03/26 12:28:01;;;;;;;9.85;2.17;;;9.10;91.90;;;;;;4948398;28;20019;-91
2023/03/26 12:30:38;;;;;;;9.48;1.90;;;9.00;92.10;;;;;;4958329;28;20039;-91
2023/03/26 12:33:26;;;;;;;15.88;1.50;;;8.90;92.30;;;;;;4968022;28;20030;-91
2023/03/26 12:35:54;;;;;;;8.25;1.60;;;8.80;92.50;;;;;;4970872;28;20027;-90
2023/03/26 12:38:23;;;;;;;8.35;1.45;;;8.70;92.70;;;;;;4958152;28;20035;-91
2023/03/26 12:41:10;;;;;;;2.90;0.93;;;8.70;92.70;;;;;;4948987;28;20404;-92
2023/03/26 12:43:42;;;;;;;5.53;1.20;;;8.70;92.80;;;;;;4944383;28;20051;-91
2023/03/26 12:46:26;;;;;;;10.05;1.25;;;8.80;92.80;;;;;;4958734;28;20027;-90
2023/03/26 12:48:58;;;;;;;13.30;1.27;;;8.90;92.70;;;;;;4980241;28;20018;-93
2023/03/26 12:51:50;;;;;;;10.25;1.00;;;9.00;92.60;;;;;;4976235;28;20073;-91
2023/03/26 12:54:27;;;;;;;12.48;1.50;;;9.10;92.40;;;;;;4976924;28;20365;-93
2023/03/26 12:57:17;;;;;;;5.63;1.10;;;9.10;92.40;;;;;;4968840;28;20039;-91
2023/03/26 13:00:09;;;;;;;6.15;1.42;;;9.20;92.20;;;;;;4941676;29;20035;-92
2023/03/26 13:02:42;;;;;;;7.25;1.15;;;9.20;92.10;;;;;;4964050;28;20019;-90
2023/03/26 13:05:35;;;;;;;3.80;1.00;;;9.20;91.80;;;;;;4941858;29;20031;-90
2023/03/26 13:08:52;;;;;;;6.32;1.27;;;9.20;91.70;;;;;;4942363;28;20038;-91
2023/03/26 13:11:28;;;;;;;4.65;1.10;;;9.20;91.60;;;;;;4883412;29;20123;-91
2023/03/26 13:14:05;;;;;;;8.95;1.50;;;9.20;91.50;;;;;;4876727;29;20033;-90
2023/03/26 13:16:55;;;;;;;10.80;1.60;;;9.20;91.60;;;;;;4891379;29;20033;-91
2023/03/26 13:20:10;;;;;;;4.57;1.27;;;9.30;91.60;;;;;;4881144;29;20044;-91